createdAt,value
2022-08-18T00:00:20.423Z,11.27
2022-08-18T00:03:00.520Z,10.50
2022-08-18T00:05:27.682Z,11.00
2022-08-18T00:07:57.376Z,10.67
2022-08-18T00:10:24.092Z,11.03
2022-08-18T00:12:50.703Z,10.83
2022-08-18T00:15:18.114Z,10.63
2022-08-18T00:17:44.968Z,11.10
2022-08-18T00:20:23.583Z,10.80
2022-08-18T00:22:50.569Z,10.07
2022-08-18T00:25:18.711Z,11.33
2022-08-18T00:27:45.353Z,11.23
2022-08-18T00:30:19.630Z,11.33
2022-08-18T00:32:54.618Z,11.70
2022-08-18T00:35:24.461Z,11.43
2022-08-18T00:37:51.048Z,11.77
2022-08-18T00:40:23.399Z,11.20
2022-08-18T00:42:53.663Z,11.70
2022-08-18T00:45:23.979Z,11.50
2022-08-18T00:47:50.889Z,11.40
2022-08-18T00:50:22.625Z,11.20
2022-08-18T00:52:56.649Z,11.20
2022-08-18T00:55:25.002Z,10.17
2022-08-18T00:57:57.238Z,11.03
2022-08-18T01:00:23.702Z,10.33
2022-08-18T01:02:55.970Z,10.97
2022-08-18T01:05:26.342Z,11.27
2022-08-18T01:07:53.404Z,10.40
2022-08-18T01:10:22.596Z,11.23
2022-08-18T01:12:52.929Z,12.60
2022-08-18T01:15:29.357Z,11.50
2022-08-18T01:18:03.523Z,9.97
2022-08-18T01:20:39.418Z,10.67
2022-08-18T01:23:15.725Z,10.27
2022-08-18T01:25:43.175Z,10.27
2022-08-18T01:28:09.733Z,10.17
2022-08-18T01:30:52.199Z,9.53
2022-08-18T01:33:19.213Z,8.80
2022-08-18T01:35:48.687Z,9.17
2022-08-18T01:38:17.634Z,10.17
2022-08-18T01:41:24.377Z,9.63
2022-08-18T01:43:31.751Z,9.60
2022-08-18T01:45:58.158Z,9.23
2022-08-18T01:48:24.618Z,9.77
2022-08-18T01:50:51.049Z,8.87
2022-08-18T01:53:17.464Z,10.13
2022-08-18T01:55:43.857Z,9.43
2022-08-18T01:58:10.768Z,10.17
2022-08-18T02:00:37.266Z,10.27
2022-08-18T02:03:06.909Z,8.90
2022-08-18T02:05:40.011Z,8.90
2022-08-18T02:08:07.115Z,9.70
2022-08-18T02:10:34.473Z,8.93
2022-08-18T02:13:01.710Z,9.40
2022-08-18T02:15:28.115Z,9.67
2022-08-18T02:17:54.669Z,9.20
2022-08-18T02:20:21.192Z,9.57
2022-08-18T02:22:48.405Z,9.37
2022-08-18T02:25:16.212Z,9.70
2022-08-18T02:27:43.077Z,9.63
2022-08-18T02:30:13.853Z,9.57
2022-08-18T02:32:41.060Z,9.93
2022-08-18T02:35:08.447Z,10.27
2022-08-18T02:37:42.474Z,10.60
2022-08-18T02:40:10.473Z,11.23
2022-08-18T02:42:42.040Z,10.63
2022-08-18T02:45:09.723Z,10.30
2022-08-18T02:47:36.717Z,10.87
2022-08-18T02:50:03.646Z,10.10
2022-08-18T02:52:30.115Z,10.80
2022-08-18T02:54:56.518Z,9.60
2022-08-18T02:57:22.904Z,9.97
2022-08-18T02:59:49.334Z,9.40
2022-08-18T03:02:16.392Z,10.27
2022-08-18T03:04:42.827Z,10.03
2022-08-18T03:07:09.369Z,9.20
2022-08-18T03:09:36.199Z,10.03
2022-08-18T03:12:03.790Z,10.03
2022-08-18T03:14:30.315Z,9.80
2022-08-18T03:16:57.311Z,9.50
2022-08-18T03:19:28.805Z,9.07
2022-08-18T03:21:58.019Z,10.27
2022-08-18T03:24:28.139Z,10.17
2022-08-18T03:26:55.932Z,10.33
2022-08-18T03:29:24.729Z,9.67
2022-08-18T03:31:54.493Z,9.60
2022-08-18T03:34:21.037Z,9.70
2022-08-18T03:36:49.654Z,9.43
2022-08-18T03:39:16.529Z,10.07
2022-08-18T03:41:58.617Z,9.47
2022-08-18T03:44:30.961Z,9.53
2022-08-18T03:46:57.567Z,10.07
2022-08-18T03:49:24.053Z,9.67
2022-08-18T03:51:50.442Z,10.23
2022-08-18T03:54:18.567Z,9.90
2022-08-18T03:56:47.078Z,10.47
2022-08-18T03:59:17.015Z,10.17
2022-08-18T04:01:45.117Z,10.07
2022-08-18T04:04:14.037Z,8.83
2022-08-18T04:06:46.962Z,9.87
2022-08-18T04:09:15.005Z,10.20
2022-08-18T04:11:43.719Z,9.67
2022-08-18T04:14:13.461Z,9.60
2022-08-18T04:16:40.562Z,10.00
2022-08-18T04:19:07.990Z,10.20
2022-08-18T04:21:38.186Z,9.13
2022-08-18T04:24:06.164Z,9.73
2022-08-18T04:26:34.952Z,8.23
2022-08-18T04:29:01.970Z,9.60
2022-08-18T04:31:30.068Z,8.57
2022-08-18T04:33:58.424Z,8.80
2022-08-18T04:36:26.026Z,8.73
2022-08-18T04:38:52.494Z,8.97
2022-08-18T04:41:23.121Z,8.80
2022-08-18T04:43:49.602Z,9.90
2022-08-18T04:46:16.097Z,9.53
2022-08-18T04:48:44.098Z,9.87
2022-08-18T04:52:33.997Z,10.80
2022-08-18T04:54:02.979Z,9.90
2022-08-18T04:56:32.972Z,9.00
2022-08-18T04:59:06.469Z,9.00
2022-08-18T05:01:39.598Z,8.63
2022-08-18T05:04:06.946Z,8.50
2022-08-18T05:06:33.777Z,9.00
2022-08-18T05:09:05.453Z,9.60
2022-08-18T05:11:32.292Z,8.53
2022-08-18T05:13:59.764Z,8.43
2022-08-18T05:16:28.173Z,8.47
2022-08-18T05:18:55.060Z,7.57
2022-08-18T05:21:23.678Z,7.63
2022-08-18T05:23:51.186Z,6.90
2022-08-18T05:26:18.952Z,7.07
2022-08-18T05:28:46.847Z,6.70
2022-08-18T05:31:21.314Z,7.70
2022-08-18T05:33:49.027Z,6.30
2022-08-18T05:36:15.455Z,6.87
2022-08-18T05:39:03.170Z,5.70
2022-08-18T05:41:41.720Z,6.10
2022-08-18T05:44:13.269Z,6.10
2022-08-18T05:46:48.508Z,5.97
2022-08-18T05:49:16.233Z,6.17
2022-08-18T05:51:47.217Z,6.30
2022-08-18T05:54:15.287Z,6.43
2022-08-18T05:56:45.475Z,5.90
2022-08-18T05:59:17.580Z,5.67
2022-08-18T06:01:49.954Z,6.20
2022-08-18T06:04:26.431Z,5.33
2022-08-18T06:06:55.797Z,6.13
2022-08-18T06:09:52.709Z,5.70
2022-08-18T06:12:37.758Z,4.90
2022-08-18T06:15:32.307Z,4.67
2022-08-18T06:18:21.023Z,4.87
2022-08-18T06:21:25.283Z,5.10
2022-08-18T06:24:15.449Z,4.70
2022-08-18T06:26:56.089Z,4.40
2022-08-18T06:29:30.760Z,4.23
2022-08-18T06:32:12.243Z,3.93
2022-08-18T06:35:01.967Z,4.20
2022-08-18T06:37:36.370Z,4.17
2022-08-18T06:40:03.122Z,3.50
2022-08-18T06:42:29.651Z,3.67
2022-08-18T06:45:03.346Z,3.20
2022-08-18T06:48:00.009Z,3.60
2022-08-18T06:50:39.019Z,3.50
2022-08-18T06:53:27.501Z,3.93
2022-08-18T06:55:55.523Z,4.93
2022-08-18T06:58:27.087Z,5.07
2022-08-18T07:00:56.188Z,4.83
2022-08-18T07:03:42.198Z,3.90
2022-08-18T07:06:20.554Z,3.93
2022-08-18T07:08:52.338Z,3.43
2022-08-18T07:11:32.692Z,3.57
2022-08-18T07:14:19.939Z,3.30
2022-08-18T07:16:58.486Z,3.37
2022-08-18T07:19:30.039Z,3.37
2022-08-18T07:22:07.224Z,3.67
2022-08-18T07:24:39.893Z,2.80
2022-08-18T07:27:08.589Z,2.80
2022-08-18T07:29:38.614Z,3.80
2022-08-18T07:32:21.296Z,2.60
2022-08-18T07:34:53.161Z,2.57
2022-08-18T07:37:28.989Z,2.70
2022-08-18T07:40:06.846Z,2.20
2022-08-18T07:43:00.781Z,2.53
2022-08-18T07:45:36.497Z,2.50
2022-08-18T07:51:36.879Z,2.20
2022-08-18T07:54:48.514Z,2.30
2022-08-18T07:57:25.151Z,1.90
2022-08-18T08:00:00.952Z,1.70
2022-08-18T08:02:33.420Z,1.43
2022-08-18T08:05:29.161Z,1.77
2022-08-18T08:07:55.562Z,1.67
2022-08-18T08:10:22.489Z,1.40
2022-08-18T08:13:54.688Z,1.60
2022-08-18T08:16:43.757Z,1.40
2022-08-18T08:19:59.340Z,1.43
2022-08-18T08:22:43.865Z,1.50
2022-08-18T08:25:45.736Z,1.80
2022-08-18T08:28:40.741Z,1.63
2022-08-18T08:31:36.942Z,1.40
2022-08-18T08:34:18.374Z,1.53
2022-08-18T08:36:47.510Z,2.23
2022-08-18T08:39:36.506Z,1.60
2022-08-18T08:42:40.187Z,1.97
2022-08-18T08:45:23.663Z,1.90
2022-08-18T08:48:09.185Z,1.83
2022-08-18T08:50:43.668Z,2.00
2022-08-18T08:53:20.634Z,1.90
2022-08-18T08:55:51.521Z,1.90
2022-08-18T08:58:37.776Z,1.70
2022-08-18T09:01:06.094Z,1.80
2022-08-18T09:03:57.711Z,1.70
2022-08-18T09:06:39.407Z,1.77
2022-08-18T09:10:04.122Z,1.97
2022-08-18T09:13:00.784Z,1.70
2022-08-18T09:16:13.623Z,1.90
2022-08-18T09:18:46.449Z,1.80
2022-08-18T09:21:13.086Z,1.60
2022-08-18T09:23:46.081Z,2.03
2022-08-18T09:26:38.574Z,1.47
2022-08-18T09:29:14.430Z,1.70
2022-08-18T09:31:41.101Z,1.80
2022-08-18T09:34:25.380Z,1.60
2022-08-18T09:37:04.422Z,1.50
2022-08-18T09:39:36.556Z,1.73
2022-08-18T09:42:12.228Z,1.77
2022-08-18T09:44:47.830Z,1.40
2022-08-18T09:47:20.380Z,1.80
2022-08-18T09:50:26.831Z,1.90
2022-08-18T09:52:58.962Z,1.57
2022-08-18T09:55:30.910Z,1.63
2022-08-18T09:58:23.010Z,1.60
2022-08-18T10:01:20.217Z,1.30
2022-08-18T10:04:29.275Z,1.63
2022-08-18T10:07:14.724Z,1.83
2022-08-18T10:09:53.357Z,1.33
2022-08-18T10:12:38.148Z,1.77
2022-08-18T10:15:33.345Z,1.50
2022-08-18T10:18:06.590Z,1.33
2022-08-18T10:20:47.506Z,1.43
2022-08-18T10:23:48.029Z,1.40
2022-08-18T10:26:30.035Z,1.83
2022-08-18T10:28:59.898Z,1.50
2022-08-18T10:31:27.884Z,1.40
2022-08-18T10:34:19.233Z,1.20
2022-08-18T10:36:52.191Z,1.70
2022-08-18T10:42:54.775Z,1.57
2022-08-18T10:45:32.469Z,1.30
2022-08-18T10:48:02.485Z,1.20
2022-08-18T10:50:31.943Z,1.73
2022-08-18T10:56:26.896Z,1.10
2022-08-18T10:59:28.637Z,1.20
2022-08-18T11:02:16.091Z,1.13
2022-08-18T11:04:46.627Z,1.30
2022-08-18T11:07:29.083Z,1.40
2022-08-18T11:12:53.121Z,1.35
2022-08-18T11:15:42.709Z,1.20
2022-08-18T11:18:30.489Z,1.30
2022-08-18T11:21:30.606Z,1.42
2022-08-18T11:24:16.983Z,1.52
2022-08-18T11:26:55.476Z,1.60
2022-08-18T11:29:25.953Z,1.40
2022-08-18T11:32:24.527Z,1.67
2022-08-18T11:35:15.994Z,1.30
2022-08-18T11:37:53.330Z,1.43
2022-08-18T11:40:51.580Z,1.73
2022-08-18T11:43:09.439Z,1.63
2022-08-18T11:45:57.946Z,1.47
2022-08-18T11:48:51.764Z,1.43
2022-08-18T11:51:24.144Z,1.50
2022-08-18T11:53:59.781Z,1.20
2022-08-18T11:56:37.851Z,1.40
2022-08-18T11:59:08.488Z,1.37
2022-08-18T12:01:55.280Z,1.30
2022-08-18T12:04:29.552Z,1.60
2022-08-18T12:07:01.708Z,1.50
2022-08-18T12:10:16.406Z,1.43
2022-08-18T12:12:50.049Z,1.53
2022-08-18T12:18:04.987Z,1.50
2022-08-18T12:20:31.441Z,1.40
2022-08-18T12:22:57.835Z,1.60
2022-08-18T12:25:25.174Z,1.50
2022-08-18T12:27:53.346Z,1.67
2022-08-18T12:30:19.782Z,1.70
2022-08-18T12:32:50.048Z,1.40
2022-08-18T12:35:21.878Z,1.70
2022-08-18T12:38:12.923Z,1.60
2022-08-18T12:40:35.583Z,1.73
2022-08-18T12:43:02.183Z,1.73
2022-08-18T12:45:29.558Z,2.00
2022-08-18T12:47:56.477Z,1.77
2022-08-18T12:50:31.267Z,2.00
2022-08-18T12:53:00.005Z,2.10
2022-08-18T12:55:30.137Z,1.80
2022-08-18T12:57:58.588Z,1.80
2022-08-18T13:00:28.909Z,1.40
2022-08-18T13:02:56.784Z,1.73
2022-08-18T13:05:27.817Z,1.77
2022-08-18T13:08:00.415Z,1.80
2022-08-18T13:10:43.202Z,1.87
2022-08-18T13:13:13.884Z,1.80
2022-08-18T13:15:44.453Z,1.97
2022-08-18T13:18:27.457Z,1.90
2022-08-18T13:20:56.786Z,1.97
2022-08-18T13:23:25.146Z,1.90
2022-08-18T13:25:52.198Z,1.93
2022-08-18T13:28:30.940Z,2.10
2022-08-18T13:31:02.612Z,1.93
2022-08-18T13:33:35.182Z,1.83
2022-08-18T13:36:17.025Z,2.10
2022-08-18T13:38:43.837Z,2.33
2022-08-18T13:41:15.930Z,2.20
2022-08-18T13:43:44.699Z,2.03
2022-08-18T13:46:17.812Z,1.87
2022-08-18T13:48:44.795Z,1.73
2022-08-18T13:51:22.553Z,2.00
2022-08-18T13:53:58.942Z,2.23
2022-08-18T13:56:33.063Z,2.23
2022-08-18T13:58:59.594Z,1.97
2022-08-18T14:01:45.014Z,2.20
2022-08-18T14:04:14.920Z,1.77
2022-08-18T14:06:51.238Z,2.00
2022-08-18T14:09:36.720Z,1.77
2022-08-18T14:12:22.937Z,2.13
2022-08-18T14:14:55.023Z,2.13
2022-08-18T14:17:23.679Z,1.70
2022-08-18T14:19:54.639Z,2.10
2022-08-18T14:22:23.549Z,1.70
2022-08-18T14:24:51.952Z,1.70
2022-08-18T14:27:20.571Z,2.00
2022-08-18T14:29:47.969Z,1.70
2022-08-18T14:32:21.997Z,1.87
2022-08-18T14:35:01.063Z,2.37
2022-08-18T14:37:46.641Z,2.00
2022-08-18T14:40:15.315Z,1.90
2022-08-18T14:42:55.113Z,1.80
2022-08-18T14:45:31.672Z,1.80
2022-08-18T14:48:07.316Z,1.93
2022-08-18T14:50:35.113Z,2.27
2022-08-18T14:53:01.946Z,2.07
2022-08-18T14:55:28.415Z,1.80
2022-08-18T14:57:59.305Z,1.80
2022-08-18T15:00:26.788Z,1.90
2022-08-18T15:02:54.060Z,2.00
2022-08-18T15:05:24.194Z,2.20
2022-08-18T15:07:51.780Z,1.80
2022-08-18T15:10:19.716Z,2.07
2022-08-18T15:12:46.471Z,2.00
2022-08-18T15:15:17.782Z,2.20
2022-08-18T15:17:44.774Z,1.90
2022-08-18T15:20:28.706Z,2.10
2022-08-18T15:22:59.114Z,2.00
2022-08-18T15:25:25.791Z,1.97
2022-08-18T15:27:52.990Z,2.17
2022-08-18T15:30:21.262Z,1.70
2022-08-18T15:32:49.826Z,2.03
2022-08-18T15:35:17.607Z,2.27
2022-08-18T15:37:47.344Z,1.70
2022-08-18T15:40:31.212Z,2.13
2022-08-18T15:43:06.909Z,1.83
2022-08-18T15:45:43.431Z,1.90
2022-08-18T15:48:20.034Z,2.03
2022-08-18T15:50:51.167Z,2.23
2022-08-18T15:53:24.522Z,2.00
2022-08-18T15:55:56.021Z,1.80
2022-08-18T15:58:26.970Z,1.83
2022-08-18T16:00:55.830Z,1.90
2022-08-18T16:03:22.279Z,2.10
2022-08-18T16:05:54.335Z,2.00
2022-08-18T16:08:23.123Z,2.00
2022-08-18T16:10:50.545Z,2.00
2022-08-18T16:13:17.480Z,2.07
2022-08-18T16:15:45.053Z,2.20
2022-08-18T16:18:11.622Z,1.70
2022-08-18T16:20:38.120Z,1.80
2022-08-18T16:23:05.332Z,2.10
2022-08-18T16:25:32.172Z,1.93
2022-08-18T16:27:59.713Z,2.10
2022-08-18T16:30:28.022Z,2.00
2022-08-18T16:32:55.225Z,2.40
2022-08-18T16:35:22.331Z,2.10
2022-08-18T16:37:49.565Z,1.70
2022-08-18T16:40:19.948Z,2.20
2022-08-18T16:42:47.433Z,2.17
2022-08-18T16:45:20.439Z,1.80
2022-08-18T16:47:47.105Z,2.17
2022-08-18T16:50:16.061Z,1.90
2022-08-18T16:52:42.545Z,2.13
2022-08-18T16:55:11.593Z,2.33
2022-08-18T16:57:54.895Z,2.17
2022-08-18T17:00:23.484Z,2.23
2022-08-18T17:02:49.944Z,2.50
2022-08-18T17:05:16.460Z,2.23
2022-08-18T17:07:42.848Z,2.10
2022-08-18T17:10:09.476Z,2.10
2022-08-18T17:12:35.925Z,2.07
2022-08-18T17:15:02.408Z,2.53
2022-08-18T17:17:29.165Z,2.07
2022-08-18T17:19:55.754Z,1.93
2022-08-18T17:22:22.144Z,2.13
2022-08-18T17:24:49.752Z,3.00
2022-08-18T17:27:37.242Z,2.00
2022-08-18T17:30:15.556Z,2.00
2022-08-18T17:32:42.086Z,2.03
2022-08-18T17:35:20.935Z,1.93
2022-08-18T17:38:03.257Z,2.30
2022-08-18T17:40:35.195Z,2.07
2022-08-18T17:43:02.097Z,2.47
2022-08-18T17:45:32.447Z,2.07
2022-08-18T17:48:01.932Z,2.20
2022-08-18T17:50:39.651Z,2.47
2022-08-18T17:53:06.693Z,2.00
2022-08-18T17:55:40.882Z,2.07
2022-08-18T17:58:36.918Z,2.30
2022-08-18T18:01:03.353Z,2.17
2022-08-18T18:03:29.753Z,2.63
2022-08-18T18:06:05.485Z,1.97
2022-08-18T18:08:55.567Z,2.10
2022-08-18T18:11:37.292Z,2.50
2022-08-18T18:14:28.610Z,2.17
2022-08-18T18:17:14.842Z,2.10
2022-08-18T18:19:47.931Z,2.40
2022-08-18T18:22:26.580Z,2.07
2022-08-18T18:25:00.491Z,2.53
2022-08-18T18:27:35.650Z,2.07
2022-08-18T18:30:27.752Z,2.37
2022-08-18T18:33:01.040Z,2.17
2022-08-18T18:35:31.063Z,2.20
2022-08-18T18:38:00.680Z,2.43
2022-08-18T18:40:29.726Z,2.30
2022-08-18T18:42:57.700Z,2.27
2022-08-18T18:45:30.274Z,2.30
2022-08-18T18:48:38.632Z,2.63
2022-08-18T18:51:12.087Z,2.20
2022-08-18T18:53:59.941Z,1.87
2022-08-18T18:56:37.189Z,2.80
2022-08-18T18:59:25.138Z,2.20
2022-08-18T19:01:59.248Z,2.10
2022-08-18T19:04:36.285Z,2.40
2022-08-18T19:07:20.949Z,2.30
2022-08-18T19:10:04.848Z,2.50
2022-08-18T19:12:38.031Z,2.60
2022-08-18T19:15:12.966Z,2.17
2022-08-18T19:17:44.553Z,2.40
2022-08-18T19:20:16.233Z,2.37
2022-08-18T19:22:54.396Z,1.97
2022-08-18T19:25:48.563Z,2.10
2022-08-18T19:28:33.469Z,2.27
2022-08-18T19:31:10.811Z,2.42
2022-08-18T19:33:53.165Z,2.63
2022-08-18T19:36:24.081Z,2.10
2022-08-18T19:39:05.691Z,2.30
2022-08-18T19:41:39.477Z,2.50
2022-08-18T19:44:24.531Z,2.30
2022-08-18T19:46:55.085Z,2.53
2022-08-18T19:50:00.565Z,2.73
2022-08-18T19:53:10.313Z,2.83
2022-08-18T19:55:55.280Z,3.70
2022-08-18T19:59:17.109Z,2.83
2022-08-18T20:02:01.665Z,2.97
2022-08-18T20:04:49.208Z,3.00
2022-08-18T20:07:46.779Z,3.30
2022-08-18T20:10:33.381Z,3.37
2022-08-18T20:13:18.063Z,3.67
2022-08-18T20:16:03.011Z,4.10
2022-08-18T20:18:36.172Z,3.63
2022-08-18T20:21:14.871Z,3.60
2022-08-18T20:24:05.840Z,3.93
2022-08-18T20:26:35.375Z,4.13
2022-08-18T20:29:01.958Z,3.83
2022-08-18T20:31:46.797Z,4.07
2022-08-18T20:34:14.600Z,3.80
2022-08-18T20:36:43.667Z,3.53
2022-08-18T20:39:46.131Z,4.10
2022-08-18T20:42:32.895Z,4.27
2022-08-18T20:45:12.865Z,3.93
2022-08-18T20:48:05.387Z,3.80
2022-08-18T20:50:52.762Z,4.10
2022-08-18T20:53:34.068Z,4.63
2022-08-18T20:56:32.547Z,4.57
2022-08-18T20:59:09.232Z,4.00
2022-08-18T21:01:36.990Z,4.43
2022-08-18T21:04:05.713Z,4.30
2022-08-18T21:06:36.640Z,4.00
2022-08-18T21:09:04.442Z,4.77
2022-08-18T21:11:43.688Z,4.93
2022-08-18T21:14:10.835Z,5.40
2022-08-18T21:16:40.838Z,4.93
2022-08-18T21:19:17.954Z,4.50
2022-08-18T21:21:48.032Z,4.73
2022-08-18T21:24:45.082Z,5.00
2022-08-18T21:27:19.276Z,4.77
2022-08-18T21:29:49.446Z,4.80
2022-08-18T21:32:19.906Z,5.20
2022-08-18T21:34:46.901Z,5.30
2022-08-18T21:37:16.277Z,5.50
2022-08-18T21:39:51.315Z,5.37
2022-08-18T21:44:49.222Z,5.30
2022-08-18T21:47:45.760Z,5.97
2022-08-18T21:50:16.476Z,6.87
2022-08-18T21:52:55.846Z,6.60
2022-08-18T21:55:28.097Z,6.63
2022-08-18T21:58:02.073Z,7.00
2022-08-18T22:00:33.463Z,7.17
2022-08-18T22:03:17.787Z,7.93
2022-08-18T22:05:58.596Z,7.70
2022-08-18T22:08:29.756Z,7.53
2022-08-18T22:11:09.369Z,8.23
2022-08-18T22:13:49.165Z,7.80
2022-08-18T22:16:22.926Z,7.73
2022-08-18T22:18:49.449Z,8.10
2022-08-18T22:21:36.315Z,7.57
2022-08-18T22:24:09.470Z,8.00
2022-08-18T22:26:38.037Z,8.33
2022-08-18T22:29:21.406Z,8.97
2022-08-18T22:31:50.466Z,8.30
2022-08-18T22:34:28.232Z,7.57
2022-08-18T22:37:02.082Z,7.70
2022-08-18T22:39:45.545Z,7.90
2022-08-18T22:42:13.499Z,7.53
2022-08-18T22:44:40.836Z,7.87
2022-08-18T22:47:08.761Z,8.10
2022-08-18T22:49:35.347Z,7.03
2022-08-18T22:52:02.160Z,7.47
2022-08-18T22:54:28.907Z,7.53
2022-08-18T22:56:57.747Z,7.47
2022-08-18T22:59:24.884Z,7.57
2022-08-18T23:01:54.499Z,8.13
2022-08-18T23:04:22.953Z,8.33
2022-08-18T23:06:49.715Z,7.63
2022-08-18T23:09:16.161Z,7.60
2022-08-18T23:11:42.629Z,7.10
2022-08-18T23:14:09.183Z,7.90
2022-08-18T23:16:35.663Z,7.77
2022-08-18T23:19:02.286Z,8.10
2022-08-18T23:21:34.480Z,7.30
2022-08-18T23:24:01.596Z,8.03
2022-08-18T23:26:29.551Z,6.93
2022-08-18T23:28:57.335Z,7.50
2022-08-18T23:31:23.759Z,7.73
2022-08-18T23:33:50.190Z,8.10
2022-08-18T23:36:16.689Z,7.83
2022-08-18T23:38:43.620Z,8.83
2022-08-18T23:41:12.270Z,8.17
2022-08-18T23:43:38.779Z,7.43
2022-08-18T23:46:06.064Z,7.83
2022-08-18T23:48:32.666Z,7.63
2022-08-18T23:50:59.153Z,8.43
2022-08-18T23:53:25.638Z,8.80
2022-08-18T23:55:52.104Z,8.17
2022-08-18T23:58:18.545Z,8.83
